createdAt,value
2023-03-19T00:03:39.897Z,6.90
2023-03-19T00:09:08.446Z,6.90
2023-03-19T00:14:43.180Z,6.90
2023-03-19T00:20:18.393Z,6.80
2023-03-19T00:25:50.043Z,6.80
2023-03-19T00:31:20.667Z,6.70
2023-03-19T00:36:54.387Z,6.70
2023-03-19T00:42:25.430Z,6.60
2023-03-19T00:48:04.804Z,6.60
2023-03-19T00:53:44.150Z,6.50
2023-03-19T00:59:18.653Z,6.40
2023-03-19T01:04:52.796Z,6.30
2023-03-19T01:10:36.947Z,6.20
2023-03-19T01:16:08.119Z,6.10
2023-03-19T01:21:43.181Z,6.00
2023-03-19T01:27:19.252Z,6.00
2023-03-19T01:32:50.795Z,5.90
2023-03-19T01:38:36.547Z,5.90
2023-03-19T01:44:29.049Z,5.80
2023-03-19T01:50:36.396Z,5.80
2023-03-19T01:56:32.876Z,5.80
2023-03-19T02:02:35.398Z,5.70
2023-03-19T02:08:36.947Z,5.70
2023-03-19T02:14:07.419Z,5.70
2023-03-19T02:19:51.951Z,5.70
2023-03-19T02:25:34.802Z,5.70
2023-03-19T02:31:07.083Z,5.60
2023-03-19T02:36:49.506Z,5.60
2023-03-19T02:42:23.267Z,5.60
2023-03-19T02:48:02.498Z,5.50
2023-03-19T02:53:35.171Z,5.40
2023-03-19T02:59:14.392Z,5.30
2023-03-19T03:04:42.974Z,5.30
2023-03-19T03:10:18.291Z,5.20
2023-03-19T03:15:47.384Z,5.20
2023-03-19T03:21:26.515Z,5.20
2023-03-19T03:27:02.901Z,5.30
2023-03-19T03:32:35.109Z,5.40
2023-03-19T03:38:12.077Z,5.50
2023-03-19T03:43:41.352Z,5.50
2023-03-19T03:49:10.644Z,5.50
2023-03-19T03:54:48.994Z,5.50
2023-03-19T04:00:20.780Z,5.60
2023-03-19T04:06:00.348Z,5.60
2023-03-19T04:11:33.826Z,5.70
2023-03-19T04:17:05.494Z,5.80
2023-03-19T04:22:36.912Z,5.80
2023-03-19T04:28:09.826Z,5.80
2023-03-19T04:33:40.880Z,5.90
2023-03-19T04:39:17.366Z,5.90
2023-03-19T04:44:52.759Z,5.90
2023-03-19T04:50:29.010Z,5.80
2023-03-19T04:55:57.727Z,5.90
2023-03-19T05:01:38.323Z,5.90
2023-03-19T05:07:21.336Z,5.90
2023-03-19T05:13:04.712Z,5.90
2023-03-19T05:18:42.027Z,6.00
2023-03-19T05:24:20.142Z,6.00
2023-03-19T05:29:57.149Z,6.10
2023-03-19T05:35:46.035Z,6.20
2023-03-19T05:41:40.588Z,6.30
2023-03-19T05:47:29.900Z,6.40
2023-03-19T05:53:10.796Z,6.50
2023-03-19T05:58:56.620Z,6.70
2023-03-19T06:04:37.180Z,6.80
2023-03-19T06:10:09.470Z,7.00
2023-03-19T06:15:45.393Z,7.10
2023-03-19T06:21:32.636Z,7.30
2023-03-19T06:27:11.889Z,7.50
2023-03-19T06:32:50.913Z,7.70
2023-03-19T06:38:21.865Z,7.90
2023-03-19T06:43:52.254Z,8.10
2023-03-19T06:49:25.167Z,8.30
2023-03-19T06:54:54.447Z,8.40
2023-03-19T07:00:26.782Z,8.60
2023-03-19T07:05:58.354Z,8.70
2023-03-19T07:11:26.965Z,8.70
2023-03-19T07:16:55.630Z,8.80
2023-03-19T07:22:36.811Z,8.90
2023-03-19T07:28:07.700Z,9.00
2023-03-19T07:33:38.514Z,9.10
2023-03-19T07:39:11.642Z,9.20
2023-03-19T07:44:40.067Z,9.30
2023-03-19T07:50:11.282Z,9.30
2023-03-19T07:55:41.977Z,9.40
2023-03-19T08:01:15.963Z,9.40
2023-03-19T08:06:45.454Z,9.50
2023-03-19T08:12:20.236Z,9.60
2023-03-19T08:17:59.766Z,9.60
2023-03-19T08:23:35.769Z,9.60
2023-03-19T08:29:04.680Z,9.70
2023-03-19T08:34:33.928Z,9.60
2023-03-19T08:40:04.862Z,9.70
2023-03-19T08:45:32.930Z,9.70
2023-03-19T08:51:04.009Z,9.70
2023-03-19T08:56:32.357Z,9.70
2023-03-19T09:02:00.624Z,9.80
2023-03-19T09:07:33.906Z,9.80
2023-03-19T09:13:01.870Z,10.00
2023-03-19T09:18:32.801Z,10.10
2023-03-19T09:24:00.784Z,10.30
2023-03-19T09:29:28.837Z,10.50
2023-03-19T09:34:57.846Z,10.70
2023-03-19T09:40:42.362Z,10.90
2023-03-19T09:46:47.868Z,11.10
2023-03-19T09:52:36.576Z,11.20
2023-03-19T09:58:14.723Z,11.30
2023-03-19T10:04:15.784Z,11.40
2023-03-19T10:09:50.151Z,11.60
2023-03-19T10:15:29.472Z,11.80
2023-03-19T10:21:19.060Z,11.90
2023-03-19T10:26:47.630Z,12.20
2023-03-19T10:32:28.082Z,12.60
2023-03-19T10:37:55.921Z,12.70
2023-03-19T10:43:26.292Z,12.70
2023-03-19T10:48:55.074Z,12.70
2023-03-19T10:54:29.069Z,12.70
2023-03-19T11:00:01.461Z,12.90
2023-03-19T11:05:34.055Z,13.00
2023-03-19T11:11:02.717Z,13.10
2023-03-19T11:16:31.336Z,13.00
2023-03-19T11:22:15.904Z,12.90
2023-03-19T11:27:44.184Z,13.00
2023-03-19T11:33:12.830Z,13.10
2023-03-19T11:38:51.241Z,13.00
2023-03-19T11:44:36.255Z,13.10
2023-03-19T11:50:08.743Z,13.20
2023-03-19T11:56:06.453Z,13.20
2023-03-19T12:02:00.771Z,13.30
2023-03-19T12:07:50.779Z,13.40
2023-03-19T12:14:00.665Z,13.50
2023-03-19T12:20:15.640Z,13.80
2023-03-19T12:26:23.656Z,14.00
2023-03-19T12:31:55.360Z,14.40
2023-03-19T12:38:10.982Z,14.90
2023-03-19T12:43:49.365Z,15.40
2023-03-19T12:49:26.358Z,15.70
2023-03-19T12:55:05.017Z,15.90
2023-03-19T13:00:56.751Z,16.30
2023-03-19T13:06:30.525Z,16.40
2023-03-19T13:12:21.045Z,16.30
2023-03-19T13:17:57.878Z,15.80
2023-03-19T13:23:35.274Z,15.50
2023-03-19T13:29:24.586Z,15.50
2023-03-19T13:35:43.252Z,15.50
2023-03-19T13:41:32.977Z,15.30
2023-03-19T13:47:26.782Z,14.90
2023-03-19T13:53:29.265Z,14.70
2023-03-19T13:59:15.901Z,14.50
2023-03-19T14:05:00.399Z,14.40
2023-03-19T14:10:32.249Z,14.30
2023-03-19T14:16:48.980Z,14.20
2023-03-19T14:22:17.112Z,14.10
2023-03-19T14:27:56.438Z,13.90
2023-03-19T14:33:44.774Z,14.10
2023-03-19T14:39:24.463Z,16.60
2023-03-19T14:45:48.326Z,18.00
2023-03-19T14:51:33.967Z,18.50
2023-03-19T14:57:20.445Z,19.40
2023-03-19T15:02:52.373Z,21.00
2023-03-19T15:08:24.075Z,21.40
2023-03-19T15:14:28.564Z,22.80
2023-03-19T15:20:17.214Z,23.70
2023-03-19T15:26:05.038Z,22.80
2023-03-19T15:32:04.896Z,22.20
2023-03-19T15:37:51.339Z,21.70
2023-03-19T15:43:23.717Z,21.00
2023-03-19T15:49:05.471Z,20.60
2023-03-19T15:54:37.845Z,20.40
2023-03-19T16:00:18.981Z,20.30
2023-03-19T16:06:17.288Z,19.40
2023-03-19T16:11:48.100Z,18.60
2023-03-19T16:17:23.417Z,17.80
2023-03-19T16:22:58.952Z,17.10
2023-03-19T16:28:29.491Z,16.60
2023-03-19T16:34:02.375Z,16.10
2023-03-19T16:39:37.772Z,15.60
2023-03-19T16:45:27.622Z,15.10
2023-03-19T16:51:02.689Z,14.80
2023-03-19T16:56:37.830Z,14.50
2023-03-19T17:02:16.211Z,14.20
2023-03-19T17:07:51.072Z,13.90
2023-03-19T17:13:25.786Z,13.60
2023-03-19T17:18:56.584Z,13.40
2023-03-19T17:24:31.567Z,13.10
2023-03-19T17:30:00.432Z,12.90
2023-03-19T17:35:28.640Z,12.80
2023-03-19T17:40:56.868Z,12.60
2023-03-19T17:46:27.589Z,12.50
2023-03-19T17:51:56.410Z,12.40
2023-03-19T17:57:26.588Z,12.30
2023-03-19T18:02:56.940Z,12.20
2023-03-19T18:08:25.291Z,12.10
2023-03-19T18:13:53.675Z,12.00
2023-03-19T18:19:34.282Z,11.90
2023-03-19T18:25:02.476Z,11.80
2023-03-19T18:30:34.565Z,11.70
2023-03-19T18:36:03.149Z,11.50
2023-03-19T18:41:31.342Z,11.40
2023-03-19T18:47:06.157Z,11.20
2023-03-19T18:52:34.400Z,11.10
2023-03-19T18:58:03.161Z,11.00
2023-03-19T19:03:33.591Z,10.80
2023-03-19T19:09:04.968Z,10.70
2023-03-19T19:14:33.234Z,10.60
2023-03-19T19:20:03.542Z,10.50
2023-03-19T19:25:31.731Z,10.40
2023-03-19T19:31:00.939Z,10.30
2023-03-19T19:36:30.142Z,10.20
2023-03-19T19:41:58.123Z,10.10
2023-03-19T19:47:26.979Z,10.00
2023-03-19T19:52:56.393Z,10.00
2023-03-19T19:58:33.023Z,9.90
2023-03-19T20:04:01.343Z,9.90
2023-03-19T20:09:29.083Z,9.90
2023-03-19T20:14:57.901Z,9.90
2023-03-19T20:20:32.584Z,9.90
2023-03-19T20:26:02.036Z,10.00
2023-03-19T20:31:32.275Z,10.10
2023-03-19T20:37:01.875Z,10.20
2023-03-19T20:42:32.387Z,10.30
2023-03-19T20:48:00.640Z,10.40
2023-03-19T20:53:29.501Z,10.50
2023-03-19T20:58:58.502Z,10.60
2023-03-19T21:04:27.436Z,10.60
2023-03-19T21:09:59.149Z,10.60
2023-03-19T21:15:28.120Z,10.60
2023-03-19T21:20:58.758Z,10.50
2023-03-19T21:26:27.266Z,10.50
2023-03-19T21:31:57.032Z,10.40
2023-03-19T21:37:25.591Z,10.30
2023-03-19T21:42:59.535Z,10.20
2023-03-19T21:48:33.245Z,10.10
2023-03-19T21:54:02.492Z,10.00
2023-03-19T21:59:32.430Z,9.90
2023-03-19T22:05:02.109Z,9.70
2023-03-19T22:10:35.850Z,9.60
2023-03-19T22:16:04.901Z,9.40
2023-03-19T22:21:33.478Z,9.30
2023-03-19T22:27:01.765Z,9.20
2023-03-19T22:32:30.018Z,9.10
2023-03-19T22:37:58.166Z,9.00
2023-03-19T22:43:46.792Z,8.80
2023-03-19T22:49:17.551Z,8.80
2023-03-19T22:54:45.749Z,8.70
2023-03-19T23:00:21.311Z,8.70
2023-03-19T23:06:01.318Z,8.60
2023-03-19T23:11:29.308Z,8.60
2023-03-19T23:17:00.887Z,8.60
2023-03-19T23:22:29.236Z,8.60
2023-03-19T23:28:01.908Z,8.50
2023-03-19T23:33:30.152Z,8.50
2023-03-19T23:38:59.296Z,8.40
2023-03-19T23:44:29.274Z,8.40
2023-03-19T23:49:57.788Z,8.40
2023-03-19T23:55:26.134Z,8.30
